Time;durP1;ratioP1;P1;durP2;ratioP2;P2;SDS_P1;SDS_P2;PMS_P1;PMS_P2;Temp;Humidity;BMP_temperature;BMP_pressure;BME280_temperature;BME280_humidity;BME280_pressure;Samples;Min_cycle;Max_cycle;Signal;HPM_P1;HPM_P2
2021/03/11 00:01:11;;;;;;;22.63;14.55;;;;;;;2.47;100.00;96163.22;5067256;28;20040;-56
2021/03/11 00:03:38;;;;;;;19.48;13.75;;;;;;;2.41;100.00;96158.44;5032205;28;20129;-55
2021/03/11 00:06:06;;;;;;;23.15;14.70;;;;;;;2.34;100.00;96155.41;5065241;28;20052;-55
2021/03/11 00:08:33;;;;;;;22.60;15.05;;;;;;;2.44;100.00;96160.00;5030306;28;20512;-53
2021/03/11 00:11:00;;;;;;;21.98;14.32;;;;;;;2.46;100.00;96153.75;5068331;28;20584;-57
2021/03/11 00:13:27;;;;;;;21.25;13.85;;;;;;;2.45;100.00;96151.25;5028152;28;20068;-52
2021/03/11 00:15:54;;;;;;;21.45;14.35;;;;;;;2.43;100.00;96150.53;5075981;28;20036;-53
2021/03/11 00:18:22;;;;;;;26.08;14.13;;;;;;;2.50;100.00;96146.56;5030146;28;20119;-56
2021/03/11 00:20:49;;;;;;;22.80;14.25;;;;;;;2.28;100.00;96144.56;5080211;28;20048;-56
2021/03/11 00:23:33;;;;;;;23.02;14.02;;;;;;;2.37;100.00;96139.59;5037778;28;20036;-56
2021/03/11 00:26:00;;;;;;;19.30;13.32;;;;;;;2.37;100.00;96133.53;5069228;28;20098;-55
2021/03/11 00:28:27;;;;;;;19.98;13.77;;;;;;;2.47;100.00;96131.16;5039987;28;20550;-56
2021/03/11 00:30:54;;;;;;;18.92;13.63;;;;;;;2.46;100.00;96139.91;5059230;28;20064;-55
2021/03/11 00:33:21;;;;;;;20.35;13.25;;;;;;;2.38;100.00;96132.63;5021888;28;20059;-52
2021/03/11 00:35:48;;;;;;;21.70;13.50;;;;;;;2.36;100.00;96131.88;5068580;28;20044;-51
2021/03/11 00:38:15;;;;;;;19.58;13.57;;;;;;;2.40;100.00;96133.34;5041393;28;23878;-53
2021/03/11 00:40:43;;;;;;;22.75;14.32;;;;;;;2.44;100.00;96139.16;5081004;28;20051;-56
2021/03/11 00:43:13;;;;;;;21.63;13.90;;;;;;;2.54;100.00;96122.81;5033165;28;20032;-54
2021/03/11 00:45:41;;;;;;;18.48;12.57;;;;;;;2.44;100.00;96124.38;5080423;28;20045;-56
2021/03/11 00:48:08;;;;;;;17.42;12.90;;;;;;;2.47;100.00;96116.38;5070082;28;20101;-54
2021/03/11 00:50:35;;;;;;;19.90;12.73;;;;;;;2.51;100.00;96111.78;5026896;28;20044;-53
2021/03/11 00:53:03;;;;;;;19.33;13.00;;;;;;;2.35;100.00;96109.41;5080435;28;20040;-57
2021/03/11 00:55:29;;;;;;;18.40;12.80;;;;;;;2.30;100.00;96114.06;5029319;28;20448;-53
2021/03/11 00:57:58;;;;;;;16.90;12.48;;;;;;;2.38;100.00;96110.03;5074092;28;20106;-54
2021/03/11 01:00:25;;;;;;;22.30;13.82;;;;;;;2.28;100.00;96109.00;5028477;28;20037;-56
2021/03/11 01:02:52;;;;;;;18.15;13.20;;;;;;;2.32;100.00;96113.03;5053693;28;20068;-57
2021/03/11 01:05:21;;;;;;;18.55;12.90;;;;;;;2.48;100.00;96101.59;5038496;28;20043;-55
2021/03/11 01:07:48;;;;;;;17.90;12.77;;;;;;;2.29;100.00;96100.22;5072457;28;20044;-55
2021/03/11 01:10:15;;;;;;;18.38;13.00;;;;;;;2.56;100.00;96096.72;5031096;28;20151;-53
2021/03/11 01:12:42;;;;;;;17.58;12.75;;;;;;;2.51;100.00;96101.38;5064697;28;20041;-56
2021/03/11 01:15:11;;;;;;;17.95;13.50;;;;;;;2.49;100.00;96101.50;5016314;28;20060;-56
2021/03/11 01:17:38;;;;;;;18.10;12.88;;;;;;;2.60;100.00;96100.78;5075798;28;20048;-53
2021/03/11 01:20:11;;;;;;;16.05;11.52;;;;;;;2.40;100.00;96090.88;5035360;28;20052;-57
2021/03/11 01:22:38;;;;;;;18.17;12.43;;;;;;;2.66;100.00;96087.34;5063742;28;20053;-53
2021/03/11 01:25:07;;;;;;;16.83;12.75;;;;;;;2.73;100.00;96083.38;5024590;28;20161;-56
2021/03/11 01:27:33;;;;;;;15.35;11.65;;;;;;;2.86;100.00;96083.38;5073842;28;20041;-52
2021/03/11 01:30:01;;;;;;;16.90;11.95;;;;;;;2.86;100.00;96093.78;5035627;28;20086;-53
2021/03/11 01:32:29;;;;;;;16.45;12.00;;;;;;;2.73;100.00;96087.75;5063820;28;20122;-55
2021/03/11 01:34:56;;;;;;;17.30;11.70;;;;;;;2.53;100.00;96092.53;5076121;28;20554;-54
2021/03/11 01:37:23;;;;;;;16.35;11.82;;;;;;;2.74;100.00;96084.19;5023192;28;20068;-56
2021/03/11 01:39:50;;;;;;;15.65;11.55;;;;;;;2.82;100.00;96082.75;5080368;28;20093;-54
2021/03/11 01:42:17;;;;;;;16.77;12.13;;;;;;;2.73;100.00;96085.16;5034391;28;20388;-55
2021/03/11 01:44:44;;;;;;;15.52;11.32;;;;;;;2.57;100.00;96080.97;5070807;28;20082;-57
2021/03/11 01:47:11;;;;;;;16.35;12.13;;;;;;;2.78;100.00;96073.47;5034481;28;20052;-56
2021/03/11 01:49:39;;;;;;;15.52;11.65;;;;;;;2.36;100.00;96078.06;5064690;28;20510;-55
2021/03/11 01:52:06;;;;;;;15.68;11.27;;;;;;;2.47;100.00;96077.34;5017033;28;20097;-56
2021/03/11 01:54:38;;;;;;;15.20;11.00;;;;;;;2.64;100.00;96068.38;5066429;28;20048;-55
2021/03/11 01:57:05;;;;;;;13.93;10.82;;;;;;;2.78;100.00;96067.44;5029108;28;20180;-52
2021/03/11 01:59:32;;;;;;;17.00;10.82;;;;;;;2.78;100.00;96057.00;5062267;28;20041;-55
2021/03/11 02:02:01;;;;;;;16.10;10.85;;;;;;;2.88;100.00;96054.59;5027531;28;20508;-57
2021/03/11 02:04:28;;;;;;;16.27;12.05;;;;;;;2.90;100.00;96040.53;5074104;28;20041;-57
2021/03/11 02:06:56;;;;;;;17.30;11.25;;;;;;;2.71;100.00;96035.78;5030548;28;20068;-54
2021/03/11 02:09:23;;;;;;;15.30;11.20;;;;;;;2.51;100.00;96041.53;5074811;28;20069;-56
2021/03/11 02:11:57;;;;;;;13.93;10.90;;;;;;;2.38;100.00;96038.97;5026364;28;20082;-56
2021/03/11 02:14:28;;;;;;;14.60;10.70;;;;;;;2.58;100.00;96045.38;5060161;28;20044;-54
2021/03/11 02:16:56;;;;;;;16.38;12.00;;;;;;;2.69;100.00;96044.66;5029256;28;20056;-57
2021/03/11 02:19:38;;;;;;;14.77;11.00;;;;;;;2.44;100.00;96040.28;5065541;28;20088;-53
2021/03/11 02:22:14;;;;;;;13.25;10.10;;;;;;;2.50;100.00;96040.69;5030466;28;20110;-52
2021/03/11 02:25:05;;;;;;;14.75;10.73;;;;;;;2.17;100.00;96050.78;5076826;28;20036;-51
2021/03/11 02:28:02;;;;;;;14.95;10.50;;;;;;;2.02;100.00;96050.06;5026866;28;20068;-56
2021/03/11 02:30:30;;;;;;;15.02;10.43;;;;;;;2.39;100.00;96030.19;5072447;28;20504;-55
2021/03/11 02:32:58;;;;;;;12.68;10.38;;;;;;;2.35;100.00;96011.38;5021201;28;20479;-58
2021/03/11 02:35:25;;;;;;;14.35;10.05;;;;;;;2.43;100.00;95992.63;5057039;28;20036;-53
2021/03/11 02:37:54;;;;;;;14.32;10.57;;;;;;;2.14;100.00;95989.44;5029422;28;21017;-57
2021/03/11 02:40:24;;;;;;;16.00;10.07;;;;;;;2.12;100.00;95976.50;5058746;28;20094;-54
2021/03/11 02:42:53;;;;;;;14.82;9.93;;;;;;;2.52;100.00;95992.00;5022875;28;20043;-57
2021/03/11 02:45:22;;;;;;;14.18;9.98;;;;;;;2.64;100.00;95982.47;5068510;28;20040;-55
2021/03/11 02:47:50;;;;;;;15.25;10.50;;;;;;;2.16;100.00;95958.94;5049266;28;20163;-57
2021/03/11 02:50:18;;;;;;;15.15;10.25;;;;;;;2.29;100.00;95957.16;5041038;28;20118;-55
2021/03/11 02:52:46;;;;;;;12.93;9.63;;;;;;;2.31;100.00;95955.28;5064673;28;20048;-57
2021/03/11 02:55:22;;;;;;;13.40;10.13;;;;;;;2.25;100.00;95947.91;5034320;28;20515;-55
2021/03/11 02:57:51;;;;;;;12.18;9.70;;;;;;;2.69;100.00;95953.53;5066428;28;20085;-55
2021/03/11 03:00:20;;;;;;;16.10;10.60;;;;;;;2.47;100.00;95942.03;5017501;28;20051;-57
2021/03/11 03:02:48;;;;;;;15.13;9.85;;;;;;;2.82;100.00;95955.16;5058077;28;20040;-57
2021/03/11 03:05:18;;;;;;;13.23;9.85;;;;;;;2.94;100.00;95940.41;5024686;28;20044;-54
2021/03/11 03:07:46;;;;;;;12.25;9.45;;;;;;;2.96;100.00;95933.34;5076387;28;20101;-55
2021/03/11 03:10:17;;;;;;;12.20;9.13;;;;;;;2.56;100.00;95962.22;5035093;28;20036;-56
2021/03/11 03:12:44;;;;;;;13.23;9.48;;;;;;;2.70;100.00;95942.19;5066290;28;20106;-57
2021/03/11 03:15:13;;;;;;;12.80;8.95;;;;;;;2.83;100.00;95948.19;5026256;28;20036;-52
2021/03/11 03:17:43;;;;;;;;;;;;;;;2.85;100.00;95941.91;5059374;28;20044;-57
2021/03/11 03:20:11;;;;;;;10.23;8.20;;;;;;;3.01;100.00;95926.00;5023675;28;19936;-58
2021/03/11 03:22:39;;;;;;;9.65;7.80;;;;;;;2.78;100.00;95900.81;5059504;28;20049;-58
2021/03/11 03:25:08;;;;;;;8.90;7.63;;;;;;;2.59;100.00;95881.31;5033986;28;20044;-58
2021/03/11 03:27:35;;;;;;;10.50;8.07;;;;;;;2.73;100.00;95884.69;5049540;28;20043;-55
2021/03/11 03:30:06;;;;;;;9.75;7.35;;;;;;;2.97;100.00;95866.44;5029171;28;20036;-59
2021/03/11 03:32:33;;;;;;;8.10;7.03;;;;;;;3.12;100.00;95875.72;5071797;28;20048;-57
2021/03/11 03:35:00;;;;;;;9.52;6.47;;;;;;;3.13;100.00;95879.16;5010344;28;20036;-55
2021/03/11 03:37:27;;;;;;;8.27;6.40;;;;;;;3.29;100.00;95872.69;5071386;28;20114;-57
2021/03/11 03:39:55;;;;;;;8.20;6.57;;;;;;;3.15;100.00;95885.09;5078122;28;20036;-56
2021/03/11 03:42:22;;;;;;;8.23;6.35;;;;;;;3.41;100.00;95876.19;5010194;28;20044;-57
2021/03/11 03:44:50;;;;;;;6.60;5.90;;;;;;;3.61;100.00;95871.22;5064667;28;20112;-57
2021/03/11 03:47:18;;;;;;;6.72;5.63;;;;;;;3.75;100.00;95864.03;5015125;28;20032;-57
2021/03/11 03:49:46;;;;;;;8.13;5.80;;;;;;;3.75;100.00;95852.75;5075500;28;20036;-54
2021/03/11 03:52:14;;;;;;;7.53;6.05;;;;;;;3.81;100.00;95847.06;5033815;28;20535;-56
2021/03/11 03:54:42;;;;;;;7.20;5.93;;;;;;;3.84;100.00;95851.22;5066408;28;20037;-57
2021/03/11 03:57:13;;;;;;;7.35;5.80;;;;;;;3.92;100.00;95851.44;5020654;28;20668;-53
2021/03/11 03:59:41;;;;;;;8.07;6.00;;;;;;;4.00;100.00;95843.88;5065699;28;20466;-58
2021/03/11 04:02:11;;;;;;;6.80;6.03;;;;;;;4.10;100.00;95842.22;5026772;28;20051;-56
2021/03/11 04:04:40;;;;;;;6.88;5.60;;;;;;;4.21;100.00;95836.16;5060718;28;20036;-56
2021/03/11 04:07:09;;;;;;;7.72;5.85;;;;;;;4.44;100.00;95822.09;5029063;28;20524;-54
2021/03/11 04:09:37;;;;;;;9.00;5.60;;;;;;;4.54;100.00;95806.50;5083818;28;20070;-58
2021/03/11 04:12:05;;;;;;;6.78;5.63;;;;;;;4.62;100.00;95791.06;5014549;28;20060;-57
2021/03/11 04:14:33;;;;;;;7.97;5.78;;;;;;;4.35;100.00;95786.28;5071512;28;20045;-57
2021/03/11 04:17:01;;;;;;;6.30;5.35;;;;;;;4.46;100.00;95788.84;5023002;28;20037;-58
2021/03/11 04:19:29;;;;;;;7.13;5.68;;;;;;;4.76;100.00;95784.72;5063501;28;20265;-56
2021/03/11 04:21:56;;;;;;;6.22;5.30;;;;;;;4.88;100.00;95799.38;5033924;28;20487;-58
2021/03/11 04:24:23;;;;;;;6.18;5.43;;;;;;;4.90;100.00;95767.91;5053675;28;20041;-57
2021/03/11 04:26:51;;;;;;;6.60;5.57;;;;;;;4.44;100.00;95745.53;5035793;28;20029;-55
2021/03/11 04:29:18;;;;;;;6.43;5.57;;;;;;;4.45;100.00;95753.28;5073990;28;20040;-57
2021/03/11 04:31:46;;;;;;;8.27;5.93;;;;;;;4.53;100.00;95758.69;5056441;28;20043;-57
2021/03/11 04:34:14;;;;;;;7.55;5.97;;;;;;;4.78;100.00;95750.63;5046211;28;20122;-58
2021/03/11 04:36:41;;;;;;;9.20;5.80;;;;;;;4.95;100.00;95742.22;5046099;28;20044;-57
2021/03/11 04:39:08;;;;;;;7.45;6.13;;;;;;;4.88;100.00;95749.75;5034950;28;20045;-56
2021/03/11 04:41:35;;;;;;;9.80;6.50;;;;;;;4.84;100.00;95750.94;5050656;28;20041;-54
2021/03/11 04:44:03;;;;;;;7.30;5.70;;;;;;;4.78;100.00;95748.84;5027468;28;20037;-56
2021/03/11 04:46:30;;;;;;;9.02;5.60;;;;;;;4.71;100.00;95740.72;5054003;28;20043;-56
2021/03/11 04:49:01;;;;;;;7.45;6.20;;;;;;;5.09;100.00;95738.47;5022113;28;20061;-57
2021/03/11 04:51:29;;;;;;;7.85;5.85;;;;;;;5.20;100.00;95738.41;5078440;28;20038;-55
2021/03/11 04:53:56;;;;;;;6.68;5.53;;;;;;;5.27;100.00;95736.09;5035698;28;20036;-56
2021/03/11 04:56:24;;;;;;;7.68;5.50;;;;;;;5.35;100.00;95736.28;5057196;28;20127;-54
2021/03/11 04:58:51;;;;;;;7.22;5.55;;;;;;;5.43;100.00;95737.25;5031120;28;20560;-57
2021/03/11 05:01:23;;;;;;;8.93;6.03;;;;;;;5.49;100.00;95743.75;5068411;28;20715;-56
2021/03/11 05:03:51;;;;;;;7.32;5.53;;;;;;;5.49;100.00;95730.69;5029465;28;20390;-56
2021/03/11 05:06:19;;;;;;;6.78;5.45;;;;;;;5.50;100.00;95728.91;5066127;28;20048;-54
2021/03/11 05:08:46;;;;;;;7.20;5.68;;;;;;;5.51;100.00;95738.41;5038548;28;20504;-55
2021/03/11 05:11:13;;;;;;;9.50;5.65;;;;;;;5.52;99.33;95727.81;5072863;28;20531;-55
2021/03/11 05:13:41;;;;;;;7.78;5.53;;;;;;;5.61;99.89;95710.50;5044500;28;20036;-57
2021/03/11 05:16:08;;;;;;;8.45;5.15;;;;;;;5.62;98.58;95713.00;5078938;28;20044;-58
2021/03/11 05:18:35;;;;;;;10.15;5.40;;;;;;;5.63;100.00;95716.44;5062574;28;20065;-56
2021/03/11 05:21:03;;;;;;;8.32;5.07;;;;;;;5.68;98.83;95714.25;5020647;28;20086;-55
2021/03/11 05:23:31;;;;;;;9.23;4.78;;;;;;;5.79;98.74;95705.47;5065123;28;20040;-57
2021/03/11 05:25:58;;;;;;;6.18;5.03;;;;;;;5.77;97.01;95705.59;5021062;28;20126;-54
2021/03/11 05:28:25;;;;;;;6.80;4.93;;;;;;;5.79;97.80;95706.28;5085439;28;20052;-55
2021/03/11 05:30:53;;;;;;;4.63;4.10;;;;;;;5.60;98.58;95716.69;5023500;28;20606;-58
2021/03/11 05:33:20;;;;;;;6.57;4.72;;;;;;;5.59;100.00;95722.88;5059019;28;21125;-59
2021/03/11 05:35:46;;;;;;;5.60;5.00;;;;;;;5.77;100.00;95716.06;5033206;28;20080;-58
2021/03/11 05:38:13;;;;;;;5.63;4.88;;;;;;;5.81;100.00;95706.97;5072628;28;20451;-59
2021/03/11 05:40:41;;;;;;;5.13;4.28;;;;;;;5.81;98.36;95711.38;5024391;28;20045;-59
2021/03/11 05:43:09;;;;;;;8.63;4.53;;;;;;;5.78;97.33;95704.66;5064413;28;20044;-57
2021/03/11 05:45:36;;;;;;;6.93;4.30;;;;;;;5.69;98.24;95698.41;5035082;28;20450;-51
2021/03/11 05:48:04;;;;;;;8.18;4.22;;;;;;;5.54;98.85;95696.28;5068107;28;20046;-58
2021/03/11 05:50:31;;;;;;;4.13;3.70;;;;;;;5.52;98.63;95700.84;5038437;28;20063;-55
2021/03/11 05:52:58;;;;;;;4.03;3.60;;;;;;;5.51;98.96;95696.59;5066274;28;20048;-59
2021/03/11 05:55:25;;;;;;;8.43;3.60;;;;;;;5.64;96.20;95700.63;5029757;28;20479;-59
2021/03/11 05:57:53;;;;;;;8.75;3.92;;;;;;;5.68;96.09;95695.94;5074525;28;20535;-53
2021/03/11 06:00:21;;;;;;;3.70;3.30;;;;;;;5.64;98.45;95695.38;5063938;28;20044;-57
2021/03/11 06:02:57;;;;;;;5.47;3.47;;;;;;;5.49;100.00;95699.31;5035466;28;20041;-56
2021/03/11 06:05:24;;;;;;;4.72;3.60;;;;;;;5.61;98.94;95703.50;5073729;28;20044;-57
2021/03/11 06:07:52;;;;;;;3.88;3.50;;;;;;;5.72;98.29;95713.03;5028099;28;20044;-59
2021/03/11 06:10:21;;;;;;;4.13;3.40;;;;;;;5.83;95.46;95715.53;5081180;28;20093;-57
2021/03/11 06:12:50;;;;;;;6.72;4.20;;;;;;;5.87;93.56;95718.69;5033112;28;20098;-57
2021/03/11 06:15:24;;;;;;;13.75;5.60;;;;;;;5.93;94.31;95716.41;5076618;28;20036;-54
2021/03/11 06:17:51;;;;;;;74.90;41.22;;;;;;;5.92;95.10;95721.75;5029763;28;20381;-58
2021/03/11 06:20:18;;;;;;;17.65;11.48;;;;;;;5.96;94.90;95728.41;5055003;28;20614;-55
2021/03/11 06:22:45;;;;;;;9.50;6.25;;;;;;;5.70;98.83;95736.69;5030468;28;20281;-58
2021/03/11 06:25:12;;;;;;;3.80;3.50;;;;;;;6.01;96.02;95738.47;5059859;28;20451;-59
2021/03/11 06:27:49;;;;;;;5.80;3.42;;;;;;;6.00;95.52;95736.81;5027455;28;20094;-57
2021/03/11 06:30:30;;;;;;;4.28;3.88;;;;;;;6.10;97.72;95728.00;5068577;28;20040;-57
2021/03/11 06:32:57;;;;;;;5.72;3.53;;;;;;;5.79;100.00;95724.59;5019448;28;20047;-57
2021/03/11 06:35:24;;;;;;;4.65;3.17;;;;;;;5.71;100.00;95711.34;5075760;28;20094;-59
2021/03/11 06:37:51;;;;;;;4.75;3.35;;;;;;;5.92;95.51;95708.69;5032373;28;20032;-58
2021/03/11 06:40:20;;;;;;;7.90;3.40;;;;;;;6.12;95.02;95713.00;5078449;28;20090;-57
2021/03/11 06:42:48;;;;;;;4.97;3.72;;;;;;;6.17;99.93;95717.84;5030035;28;20075;-58
2021/03/11 06:45:24;;;;;;;7.35;4.10;;;;;;;6.10;100.00;95719.34;5065901;28;20051;-58
2021/03/11 06:47:53;;;;;;;3.55;3.25;;;;;;;6.06;100.00;95712.72;5029367;28;20102;-55
2021/03/11 06:50:31;;;;;;;3.90;3.30;;;;;;;6.39;100.00;95709.72;5059353;28;20067;-58
2021/03/11 06:53:02;;;;;;;3.20;2.90;;;;;;;6.37;99.34;95714.28;5015876;28;20041;-58
2021/03/11 06:55:28;;;;;;;4.07;3.30;;;;;;;6.44;99.07;95701.47;5072682;28;20040;-59
2021/03/11 06:57:55;;;;;;;5.25;3.55;;;;;;;6.69;96.44;95713.16;5030660;28;22350;-58
2021/03/11 07:00:24;;;;;;;3.45;3.15;;;;;;;6.42;100.00;95719.91;5076736;28;20537;-55
2021/03/11 07:02:53;;;;;;;3.60;3.30;;;;;;;6.47;99.19;95713.44;5050732;28;20596;-58
2021/03/11 07:05:22;;;;;;;4.35;3.03;;;;;;;6.49;100.00;95719.38;5060493;28;20138;-59
2021/03/11 07:08:03;;;;;;;3.25;2.95;;;;;;;6.36;100.00;95723.06;5078120;28;20067;-58
2021/03/11 07:10:30;;;;;;;3.65;2.78;;;;;;;6.65;100.00;95722.28;5057309;28;20048;-59
2021/03/11 07:12:59;;;;;;;6.07;3.40;;;;;;;6.35;100.00;95724.03;5070991;28;20044;-57
2021/03/11 07:15:27;;;;;;;4.35;3.13;;;;;;;6.57;100.00;95716.88;5020925;28;20524;-55
2021/03/11 07:17:56;;;;;;;4.40;2.97;;;;;;;6.56;100.00;95723.91;5061427;28;20045;-59
2021/03/11 07:20:23;;;;;;;3.35;3.00;;;;;;;6.40;100.00;95726.25;5039054;28;20040;-59
2021/03/11 07:23:03;;;;;;;3.40;3.00;;;;;;;6.32;100.00;95723.50;5060422;28;20094;-58
2021/03/11 07:25:31;;;;;;;3.70;3.05;;;;;;;6.55;100.00;95717.03;5029243;28;20119;-59
2021/03/11 07:28:01;;;;;;;4.00;2.90;;;;;;;6.41;100.00;95731.34;5069099;28;20511;-59
2021/03/11 07:30:29;;;;;;;3.42;3.13;;;;;;;6.27;100.00;95744.84;5024661;28;20044;-59
2021/03/11 07:33:02;;;;;;;4.13;3.20;;;;;;;6.72;100.00;95736.47;5070195;28;20051;-59
2021/03/11 07:35:31;;;;;;;4.10;2.78;;;;;;;6.68;100.00;95747.38;5035557;28;20516;-57
2021/03/11 07:38:00;;;;;;;5.07;3.08;;;;;;;6.58;100.00;95724.63;5072270;28;20086;-59
2021/03/11 07:40:29;;;;;;;3.63;2.85;;;;;;;6.58;100.00;95747.38;5031938;28;20515;-57
2021/03/11 07:43:02;;;;;;;4.80;2.85;;;;;;;6.79;100.00;95734.13;5076408;28;20060;-59
2021/03/11 07:45:29;;;;;;;3.72;3.20;;;;;;;6.78;100.00;95735.91;5024024;28;20045;-56
2021/03/11 07:47:58;;;;;;;4.57;3.30;;;;;;;6.99;100.00;95724.44;5067419;28;20040;-58
2021/03/11 07:50:26;;;;;;;3.72;3.42;;;;;;;7.31;100.00;95709.19;5016158;28;20041;-59
2021/03/11 07:52:55;;;;;;;5.10;3.90;;;;;;;7.63;100.00;95710.56;5066380;28;20098;-59
2021/03/11 07:55:26;;;;;;;5.82;4.22;;;;;;;7.78;100.00;95695.19;5047335;28;20456;-50
2021/03/11 07:57:53;;;;;;;7.47;4.95;;;;;;;7.93;100.00;95696.34;5081189;28;20503;-58
2021/03/11 08:00:25;;;;;;;5.85;4.88;;;;;;;7.93;100.00;95690.25;5032716;28;20041;-57
2021/03/11 08:02:54;;;;;;;5.80;4.20;;;;;;;8.06;100.00;95682.88;5075666;28;20036;-59
2021/03/11 08:05:27;;;;;;;5.78;4.22;;;;;;;8.09;100.00;95680.75;5024664;28;20040;-57
2021/03/11 08:08:12;;;;;;;6.20;4.68;;;;;;;8.09;100.00;95672.88;5059669;28;20964;-57
2021/03/11 08:10:41;;;;;;;7.68;5.18;;;;;;;8.10;100.00;95673.72;5033437;28;20403;-59
2021/03/11 08:13:27;;;;;;;7.68;5.40;;;;;;;8.21;100.00;95662.97;5059812;28;20041;-59
2021/03/11 08:15:55;;;;;;;6.72;5.10;;;;;;;8.47;100.00;95663.09;5027207;28;20044;-52
2021/03/11 08:18:42;;;;;;;6.88;5.18;;;;;;;8.58;100.00;95667.28;5074979;28;20502;-59
2021/03/11 08:21:43;;;;;;;6.60;4.57;;;;;;;8.76;100.00;95651.50;5023071;28;22478;-57
2021/03/11 08:24:42;;;;;;;8.70;4.57;;;;;;;9.08;100.00;95648.25;5061931;28;20084;-55
2021/03/11 08:27:41;;;;;;;6.28;4.30;;;;;;;9.23;100.00;95641.44;5034344;28;20105;-58
2021/03/11 08:30:50;;;;;;;6.70;4.30;;;;;;;9.41;100.00;95648.44;5060973;28;20037;-59
2021/03/11 08:33:54;;;;;;;4.60;4.10;;;;;;;9.48;100.00;95652.09;5000543;28;20059;-58
2021/03/11 08:36:33;;;;;;;6.32;4.60;;;;;;;9.56;100.00;95649.47;5075061;28;20380;-58
2021/03/11 08:39:01;;;;;;;5.30;3.78;;;;;;;9.67;100.00;95654.47;5070496;28;20040;-58
2021/03/11 08:41:33;;;;;;;4.25;3.42;;;;;;;9.58;100.00;95657.22;5073635;28;20118;-59
2021/03/11 08:44:03;;;;;;;6.75;4.65;;;;;;;9.74;100.00;95662.56;5042951;28;20040;-59
2021/03/11 08:46:53;;;;;;;4.43;3.58;;;;;;;9.98;100.00;95648.66;5066011;28;20615;-56
2021/03/11 08:49:42;;;;;;;7.20;3.70;;;;;;;10.11;100.00;95643.72;5045969;28;20056;-58
2021/03/11 08:52:41;;;;;;;7.13;3.70;;;;;;;10.23;95.30;95638.97;5016806;28;20119;-55
2021/03/11 08:55:46;;;;;;;5.32;3.70;;;;;;;10.32;95.36;95631.94;5053884;28;20056;-60
2021/03/11 08:58:32;;;;;;;4.35;3.20;;;;;;;10.42;94.31;95628.13;5018994;28;20052;-57
2021/03/11 09:01:01;;;;;;;4.82;3.03;;;;;;;10.23;94.66;95628.44;5080618;28;20058;-61
2021/03/11 09:03:39;;;;;;;3.95;3.00;;;;;;;10.57;90.79;95625.69;5026342;28;20044;-57
2021/03/11 09:06:07;;;;;;;3.80;3.17;;;;;;;10.50;89.29;95613.34;5076646;28;20052;-59
2021/03/11 09:08:36;;;;;;;3.78;3.00;;;;;;;10.71;86.98;95613.66;5022473;28;20040;-59
2021/03/11 09:11:11;;;;;;;4.93;3.00;;;;;;;10.70;89.64;95617.25;5068531;28;20048;-59
2021/03/11 09:13:43;;;;;;;28.50;17.42;;;;;;;10.95;91.18;95607.53;5033764;28;20041;-58
2021/03/11 09:16:10;;;;;;;19.73;13.52;;;;;;;10.55;89.41;95618.94;5058236;28;20087;-59
2021/03/11 09:18:38;;;;;;;5.13;3.60;;;;;;;10.39;92.31;95617.09;5032968;28;20090;-60
2021/03/11 09:21:07;;;;;;;8.50;4.28;;;;;;;9.97;96.94;95613.56;5071173;28;20514;-59
2021/03/11 09:23:40;;;;;;;6.50;4.03;;;;;;;10.14;95.58;95617.06;5026731;28;20502;-58
2021/03/11 09:26:09;;;;;;;6.22;3.42;;;;;;;10.23;94.16;95608.19;5079975;28;20040;-59
2021/03/11 09:28:37;;;;;;;4.72;3.65;;;;;;;10.49;94.66;95609.03;5027670;28;20044;-59
2021/03/11 09:31:06;;;;;;;5.35;3.33;;;;;;;10.12;97.61;95619.03;5069900;28;20255;-60
2021/03/11 09:33:38;;;;;;;2.40;2.05;;;;;;;10.73;91.47;95614.28;5073714;28;20044;-60
2021/03/11 09:36:09;;;;;;;2.20;2.00;;;;;;;10.84;91.39;95606.06;5042433;28;20032;-59
2021/03/11 09:38:37;;;;;;;3.38;2.30;;;;;;;10.94;89.33;95582.13;5066871;28;20031;-60
2021/03/11 09:41:06;;;;;;;3.28;2.20;;;;;;;11.17;84.06;95590.97;5021531;28;20110;-60
2021/03/11 09:43:35;;;;;;;3.13;2.15;;;;;;;11.21;83.05;95588.00;5074746;28;20543;-58
2021/03/11 09:46:09;;;;;;;3.90;2.20;;;;;;;11.38;78.87;95586.94;5026195;28;20056;-59
2021/03/11 09:48:39;;;;;;;3.15;2.33;;;;;;;11.47;87.65;95585.09;5057786;28;20377;-59
2021/03/11 09:51:08;;;;;;;3.58;2.38;;;;;;;11.44;88.49;95578.34;5013352;28;20153;-59
2021/03/11 09:53:40;;;;;;;3.40;2.10;;;;;;;11.67;79.90;95570.50;5063953;28;20036;-59
2021/03/11 09:56:11;;;;;;;2.58;2.20;;;;;;;11.42;87.75;95567.13;5023425;28;20072;-60
2021/03/11 09:58:43;;;;;;;2.83;2.20;;;;;;;11.57;78.89;95565.41;5076334;28;20075;-59
2021/03/11 10:01:11;;;;;;;3.60;2.20;;;;;;;11.59;79.84;95555.50;5008004;28;20025;-59
2021/03/11 10:03:39;;;;;;;3.30;2.35;;;;;;;11.81;81.61;95561.81;5074277;28;20044;-59
2021/03/11 10:06:07;;;;;;;3.15;2.00;;;;;;;11.67;80.74;95545.91;5022128;28;20048;-60
2021/03/11 10:08:38;;;;;;;9.65;2.63;;;;;;;11.68;80.61;95558.09;5068461;28;20056;-58
2021/03/11 10:11:17;;;;;;;2.97;2.03;;;;;;;11.73;76.50;95514.31;5027380;28;20050;-57
2021/03/11 10:13:50;;;;;;;3.40;2.10;;;;;;;11.82;81.36;95537.03;5069295;28;20039;-59
2021/03/11 10:16:39;;;;;;;2.20;1.92;;;;;;;12.01;75.90;95540.25;5025666;28;20484;-57
2021/03/11 10:19:10;;;;;;;2.53;2.00;;;;;;;12.30;73.29;95529.78;5060164;28;20044;-59
2021/03/11 10:21:52;;;;;;;2.40;2.17;;;;;;;12.38;71.62;95536.81;5026402;28;20045;-59
2021/03/11 10:24:32;;;;;;;1.77;1.60;;;;;;;12.46;68.41;95528.84;5070683;28;20044;-59
2021/03/11 10:27:01;;;;;;;2.92;2.00;;;;;;;12.52;71.36;95530.75;5035764;28;20035;-57
2021/03/11 10:29:30;;;;;;;2.88;2.00;;;;;;;12.65;74.80;95527.50;5056303;28;20114;-57
2021/03/11 10:31:59;;;;;;;2.25;1.70;;;;;;;12.98;69.33;95516.56;5024860;28;20040;-58
2021/03/11 10:34:26;;;;;;;3.40;1.90;;;;;;;13.22;66.36;95510.19;5062989;28;20046;-60
2021/03/11 10:36:57;;;;;;;3.83;1.95;;;;;;;13.13;66.99;95498.84;5028093;28;20043;-57
2021/03/11 10:39:25;;;;;;;1.88;1.52;;;;;;;13.26;64.23;95482.34;5060360;28;20487;-59
2021/03/11 10:42:01;;;;;;;4.95;2.10;;;;;;;13.52;64.99;95492.41;5026497;28;20048;-59
2021/03/11 10:44:29;;;;;;;4.70;1.80;;;;;;;13.48;62.84;95486.69;5059101;28;20044;-58
2021/03/11 10:47:14;;;;;;;5.85;1.90;;;;;;;13.56;64.59;95480.47;5023698;28;20051;-59
2021/03/11 10:49:42;;;;;;;2.38;1.67;;;;;;;13.87;64.53;95474.06;5082788;28;20546;-58
2021/03/11 10:52:10;;;;;;;2.63;1.80;;;;;;;13.75;59.81;95471.88;5024056;28;20036;-59
2021/03/11 10:54:37;;;;;;;2.20;1.70;;;;;;;13.74;61.18;95459.66;5066734;28;20043;-60
2021/03/11 10:57:05;;;;;;;2.67;1.83;;;;;;;14.02;61.92;95458.91;5020236;28;20086;-60
2021/03/11 10:59:46;;;;;;;2.05;1.70;;;;;;;13.94;62.83;95443.13;5059186;28;20041;-58
2021/03/11 11:02:15;;;;;;;3.03;1.67;;;;;;;14.19;61.52;95454.97;5035225;28;20363;-60
2021/03/11 11:04:42;;;;;;;2.22;1.70;;;;;;;14.32;65.01;95443.66;5063251;28;20530;-59
2021/03/11 11:07:10;;;;;;;2.97;1.60;;;;;;;14.33;65.18;95439.97;5065525;28;20045;-60
2021/03/11 11:09:39;;;;;;;1.85;1.70;;;;;;;14.43;63.34;95443.09;5037066;28;20051;-60
2021/03/11 11:12:08;;;;;;;2.00;1.80;;;;;;;14.55;66.28;95434.63;5063860;28;20106;-60
2021/03/11 11:14:37;;;;;;;2.22;1.60;;;;;;;14.59;68.14;95460.59;5035573;28;20036;-60
2021/03/11 11:17:04;;;;;;;1.77;1.60;;;;;;;14.66;64.15;95439.44;5062213;28;20040;-59
2021/03/11 11:19:32;;;;;;;3.92;2.08;;;;;;;14.88;63.48;95427.69;5021580;28;20433;-58
2021/03/11 11:22:01;;;;;;;2.72;1.40;;;;;;;14.91;63.43;95426.50;5062560;28;20035;-60
2021/03/11 11:24:28;;;;;;;3.78;1.80;;;;;;;15.25;67.17;95432.75;4992509;28;20404;-56
2021/03/11 11:26:58;;;;;;;2.60;1.70;;;;;;;15.63;61.33;95417.94;5075995;28;20044;-59
2021/03/11 11:29:26;;;;;;;1.95;1.60;;;;;;;15.13;64.18;95401.44;5025026;28;20048;-58
2021/03/11 11:31:53;;;;;;;5.40;1.60;;;;;;;15.19;63.38;95398.00;5058920;28;20092;-59
2021/03/11 11:34:21;;;;;;;2.08;1.65;;;;;;;14.99;62.70;95397.09;5039933;28;20043;-60
2021/03/11 11:36:50;;;;;;;2.00;1.70;;;;;;;15.28;71.48;95406.63;5068735;28;20063;-60
2021/03/11 11:39:17;;;;;;;1.88;1.70;;;;;;;15.45;62.21;95399.13;5028038;28;20044;-60
2021/03/11 11:41:44;;;;;;;2.05;1.60;;;;;;;15.53;69.27;95401.56;5062078;28;20032;-59
2021/03/11 11:44:12;;;;;;;3.13;1.60;;;;;;;15.81;60.70;95382.84;5016314;28;20099;-59